sensor_id;sensor_type;location;lat;lon;timestamp;P1;durP1;ratioP1;P2;durP2;ratioP2
24635;SDS011;12772;49.794;10.024;2023-11-21T00:01:36;5.55;;;2.53;;
24635;SDS011;12772;49.794;10.024;2023-11-21T00:05:38;3.35;;;2.00;;
24635;SDS011;12772;49.794;10.024;2023-11-21T00:09:41;2.55;;;2.33;;
24635;SDS011;12772;49.794;10.024;2023-11-21T00:13:44;2.22;;;2.00;;
24635;SDS011;12772;49.794;10.024;2023-11-21T00:17:46;4.03;;;2.10;;
24635;SDS011;12772;49.794;10.024;2023-11-21T00:21:48;5.70;;;2.50;;
24635;SDS011;12772;49.794;10.024;2023-11-21T00:25:50;4.63;;;2.13;;
24635;SDS011;12772;49.794;10.024;2023-11-21T00:29:52;3.95;;;2.25;;
24635;SDS011;12772;49.794;10.024;2023-11-21T00:33:54;2.33;;;2.05;;
24635;SDS011;12772;49.794;10.024;2023-11-21T00:37:56;4.35;;;2.33;;
24635;SDS011;12772;49.794;10.024;2023-11-21T00:41:58;3.47;;;2.42;;
24635;SDS011;12772;49.794;10.024;2023-11-21T00:46:03;3.35;;;2.30;;
24635;SDS011;12772;49.794;10.024;2023-11-21T00:50:07;5.90;;;2.45;;
24635;SDS011;12772;49.794;10.024;2023-11-21T00:54:10;2.50;;;2.00;;
24635;SDS011;12772;49.794;10.024;2023-11-21T00:58:12;5.45;;;2.20;;
24635;SDS011;12772;49.794;10.024;2023-11-21T01:02:14;2.70;;;2.03;;
24635;SDS011;12772;49.794;10.024;2023-11-21T01:06:16;4.32;;;1.92;;
24635;SDS011;12772;49.794;10.024;2023-11-21T01:10:18;2.78;;;2.28;;
24635;SDS011;12772;49.794;10.024;2023-11-21T01:14:20;3.10;;;2.00;;
24635;SDS011;12772;49.794;10.024;2023-11-21T01:18:22;3.83;;;2.83;;
24635;SDS011;12772;49.794;10.024;2023-11-21T01:22:26;3.60;;;2.10;;
24635;SDS011;12772;49.794;10.024;2023-11-21T01:26:28;1.90;;;1.75;;
24635;SDS011;12772;49.794;10.024;2023-11-21T01:30:30;3.15;;;1.77;;
24635;SDS011;12772;49.794;10.024;2023-11-21T01:34:33;2.80;;;1.70;;
24635;SDS011;12772;49.794;10.024;2023-11-21T01:38:35;3.22;;;1.98;;
24635;SDS011;12772;49.794;10.024;2023-11-21T01:42:37;2.75;;;1.70;;
24635;SDS011;12772;49.794;10.024;2023-11-21T01:46:39;1.70;;;1.60;;
24635;SDS011;12772;49.794;10.024;2023-11-21T01:50:42;2.20;;;1.42;;
24635;SDS011;12772;49.794;10.024;2023-11-21T01:54:45;2.15;;;1.50;;
24635;SDS011;12772;49.794;10.024;2023-11-21T01:58:48;2.83;;;1.80;;
24635;SDS011;12772;49.794;10.024;2023-11-21T02:02:51;3.45;;;2.03;;
24635;SDS011;12772;49.794;10.024;2023-11-21T02:06:53;3.58;;;2.17;;
24635;SDS011;12772;49.794;10.024;2023-11-21T02:10:55;4.63;;;2.55;;
24635;SDS011;12772;49.794;10.024;2023-11-21T02:14:58;3.78;;;2.25;;
24635;SDS011;12772;49.794;10.024;2023-11-21T02:19:00;3.33;;;2.00;;
24635;SDS011;12772;49.794;10.024;2023-11-21T02:23:03;3.35;;;2.00;;
24635;SDS011;12772;49.794;10.024;2023-11-21T02:27:05;2.95;;;1.60;;
24635;SDS011;12772;49.794;10.024;2023-11-21T02:31:07;3.03;;;1.83;;
24635;SDS011;12772;49.794;10.024;2023-11-21T02:35:09;2.38;;;1.65;;
24635;SDS011;12772;49.794;10.024;2023-11-21T02:39:12;3.25;;;2.03;;
24635;SDS011;12772;49.794;10.024;2023-11-21T02:43:15;2.03;;;1.65;;
24635;SDS011;12772;49.794;10.024;2023-11-21T02:47:16;2.28;;;2.03;;
24635;SDS011;12772;49.794;10.024;2023-11-21T02:51:19;4.28;;;1.98;;
24635;SDS011;12772;49.794;10.024;2023-11-21T02:55:21;2.72;;;1.95;;
24635;SDS011;12772;49.794;10.024;2023-11-21T02:59:25;2.00;;;1.75;;
24635;SDS011;12772;49.794;10.024;2023-11-21T03:03:27;1.65;;;1.52;;
24635;SDS011;12772;49.794;10.024;2023-11-21T03:07:29;1.75;;;1.42;;
24635;SDS011;12772;49.794;10.024;2023-11-21T03:11:31;2.38;;;1.75;;
24635;SDS011;12772;49.794;10.024;2023-11-21T03:15:33;3.30;;;1.83;;
24635;SDS011;12772;49.794;10.024;2023-11-21T03:19:35;4.78;;;2.33;;
24635;SDS011;12772;49.794;10.024;2023-11-21T03:23:38;4.30;;;2.45;;
24635;SDS011;12772;49.794;10.024;2023-11-21T03:27:40;3.30;;;1.90;;
24635;SDS011;12772;49.794;10.024;2023-11-21T03:31:42;6.20;;;2.20;;
24635;SDS011;12772;49.794;10.024;2023-11-21T03:35:44;3.42;;;1.90;;
24635;SDS011;12772;49.794;10.024;2023-11-21T03:39:46;2.25;;;1.90;;
24635;SDS011;12772;49.794;10.024;2023-11-21T03:43:48;3.97;;;1.90;;
24635;SDS011;12772;49.794;10.024;2023-11-21T03:47:50;2.88;;;1.85;;
24635;SDS011;12772;49.794;10.024;2023-11-21T03:51:52;3.28;;;1.90;;
24635;SDS011;12772;49.794;10.024;2023-11-21T03:55:54;2.75;;;1.83;;
24635;SDS011;12772;49.794;10.024;2023-11-21T03:59:56;3.42;;;2.00;;
24635;SDS011;12772;49.794;10.024;2023-11-21T04:03:58;6.70;;;2.28;;
24635;SDS011;12772;49.794;10.024;2023-11-21T04:08:00;6.70;;;2.03;;
24635;SDS011;12772;49.794;10.024;2023-11-21T04:12:02;2.33;;;1.50;;
24635;SDS011;12772;49.794;10.024;2023-11-21T04:16:05;1.70;;;1.60;;
24635;SDS011;12772;49.794;10.024;2023-11-21T04:20:08;4.70;;;2.15;;
24635;SDS011;12772;49.794;10.024;2023-11-21T04:24:11;3.67;;;2.25;;
24635;SDS011;12772;49.794;10.024;2023-11-21T04:28:13;2.92;;;2.25;;
24635;SDS011;12772;49.794;10.024;2023-11-21T04:32:15;3.63;;;1.90;;
24635;SDS011;12772;49.794;10.024;2023-11-21T04:36:17;2.85;;;2.17;;
24635;SDS011;12772;49.794;10.024;2023-11-21T04:40:19;2.60;;;1.70;;
24635;SDS011;12772;49.794;10.024;2023-11-21T04:44:21;2.20;;;1.90;;
24635;SDS011;12772;49.794;10.024;2023-11-21T04:48:23;2.30;;;2.00;;
24635;SDS011;12772;49.794;10.024;2023-11-21T04:52:25;3.13;;;1.90;;
24635;SDS011;12772;49.794;10.024;2023-11-21T04:56:27;2.80;;;2.17;;
24635;SDS011;12772;49.794;10.024;2023-11-21T05:00:29;2.35;;;2.03;;
24635;SDS011;12772;49.794;10.024;2023-11-21T05:04:31;1.98;;;1.85;;
24635;SDS011;12772;49.794;10.024;2023-11-21T05:08:33;3.03;;;2.10;;
24635;SDS011;12772;49.794;10.024;2023-11-21T05:12:37;4.00;;;2.38;;
24635;SDS011;12772;49.794;10.024;2023-11-21T05:16:40;3.80;;;2.20;;
24635;SDS011;12772;49.794;10.024;2023-11-21T05:20:43;3.00;;;2.05;;
24635;SDS011;12772;49.794;10.024;2023-11-21T05:24:45;2.55;;;1.88;;
24635;SDS011;12772;49.794;10.024;2023-11-21T05:28:47;2.78;;;2.20;;
24635;SDS011;12772;49.794;10.024;2023-11-21T05:32:48;1.73;;;1.60;;
24635;SDS011;12772;49.794;10.024;2023-11-21T05:36:51;3.40;;;2.10;;
24635;SDS011;12772;49.794;10.024;2023-11-21T05:40:53;2.88;;;1.90;;
24635;SDS011;12772;49.794;10.024;2023-11-21T05:44:55;4.43;;;2.35;;
24635;SDS011;12772;49.794;10.024;2023-11-21T05:48:59;3.30;;;2.17;;
24635;SDS011;12772;49.794;10.024;2023-11-21T05:53:01;3.80;;;2.63;;
24635;SDS011;12772;49.794;10.024;2023-11-21T05:57:04;5.32;;;3.10;;
24635;SDS011;12772;49.794;10.024;2023-11-21T06:01:06;6.30;;;3.22;;
24635;SDS011;12772;49.794;10.024;2023-11-21T06:05:09;3.65;;;2.50;;
24635;SDS011;12772;49.794;10.024;2023-11-21T06:09:11;3.80;;;3.03;;
24635;SDS011;12772;49.794;10.024;2023-11-21T06:13:13;3.20;;;2.92;;
24635;SDS011;12772;49.794;10.024;2023-11-21T06:17:15;2.70;;;2.40;;
24635;SDS011;12772;49.794;10.024;2023-11-21T06:21:18;3.42;;;2.83;;
24635;SDS011;12772;49.794;10.024;2023-11-21T06:25:20;3.15;;;2.70;;
24635;SDS011;12772;49.794;10.024;2023-11-21T06:29:22;3.38;;;3.03;;
24635;SDS011;12772;49.794;10.024;2023-11-21T06:33:24;4.82;;;3.22;;
24635;SDS011;12772;49.794;10.024;2023-11-21T06:37:28;3.53;;;2.80;;
24635;SDS011;12772;49.794;10.024;2023-11-21T06:41:31;3.42;;;2.92;;
24635;SDS011;12772;49.794;10.024;2023-11-21T06:45:33;3.97;;;2.30;;
24635;SDS011;12772;49.794;10.024;2023-11-21T06:49:35;4.00;;;2.85;;
24635;SDS011;12772;49.794;10.024;2023-11-21T06:53:38;3.45;;;3.15;;
24635;SDS011;12772;49.794;10.024;2023-11-21T06:57:41;3.92;;;3.15;;
24635;SDS011;12772;49.794;10.024;2023-11-21T07:01:43;3.15;;;2.85;;
24635;SDS011;12772;49.794;10.024;2023-11-21T07:05:45;4.38;;;3.25;;
24635;SDS011;12772;49.794;10.024;2023-11-21T07:09:47;6.82;;;3.83;;
24635;SDS011;12772;49.794;10.024;2023-11-21T07:13:49;3.47;;;3.17;;
24635;SDS011;12772;49.794;10.024;2023-11-21T07:17:52;6.43;;;3.88;;
24635;SDS011;12772;49.794;10.024;2023-11-21T07:21:54;4.30;;;3.88;;
24635;SDS011;12772;49.794;10.024;2023-11-21T07:25:56;6.28;;;4.35;;
24635;SDS011;12772;49.794;10.024;2023-11-21T07:29:58;4.13;;;3.65;;
24635;SDS011;12772;49.794;10.024;2023-11-21T07:34:00;5.68;;;3.75;;
24635;SDS011;12772;49.794;10.024;2023-11-21T07:38:02;4.28;;;3.75;;
24635;SDS011;12772;49.794;10.024;2023-11-21T07:42:04;6.13;;;4.43;;
24635;SDS011;12772;49.794;10.024;2023-11-21T07:46:06;5.60;;;4.15;;
24635;SDS011;12772;49.794;10.024;2023-11-21T07:50:08;7.82;;;4.55;;
24635;SDS011;12772;49.794;10.024;2023-11-21T07:54:11;4.55;;;4.15;;
24635;SDS011;12772;49.794;10.024;2023-11-21T07:58:13;7.10;;;4.70;;
24635;SDS011;12772;49.794;10.024;2023-11-21T08:02:15;6.20;;;4.47;;
24635;SDS011;12772;49.794;10.024;2023-11-21T08:06:18;9.88;;;6.78;;
24635;SDS011;12772;49.794;10.024;2023-11-21T08:10:20;6.22;;;5.28;;
24635;SDS011;12772;49.794;10.024;2023-11-21T08:14:22;4.68;;;4.22;;
24635;SDS011;12772;49.794;10.024;2023-11-21T08:18:25;7.72;;;6.47;;
24635;SDS011;12772;49.794;10.024;2023-11-21T08:22:27;10.90;;;8.68;;
24635;SDS011;12772;49.794;10.024;2023-11-21T08:26:29;9.73;;;7.65;;
24635;SDS011;12772;49.794;10.024;2023-11-21T08:30:31;13.45;;;9.27;;
24635;SDS011;12772;49.794;10.024;2023-11-21T08:34:35;11.63;;;8.00;;
24635;SDS011;12772;49.794;10.024;2023-11-21T08:38:38;11.65;;;8.23;;
24635;SDS011;12772;49.794;10.024;2023-11-21T08:42:41;8.80;;;7.90;;
24635;SDS011;12772;49.794;10.024;2023-11-21T08:46:45;10.93;;;8.48;;
24635;SDS011;12772;49.794;10.024;2023-11-21T08:50:48;12.13;;;8.88;;
24635;SDS011;12772;49.794;10.024;2023-11-21T08:54:51;7.80;;;7.03;;
24635;SDS011;12772;49.794;10.024;2023-11-21T08:58:56;10.55;;;8.30;;
24635;SDS011;12772;49.794;10.024;2023-11-21T09:02:58;9.68;;;8.18;;
24635;SDS011;12772;49.794;10.024;2023-11-21T09:07:00;9.68;;;7.97;;
24635;SDS011;12772;49.794;10.024;2023-11-21T09:11:02;11.38;;;9.40;;
24635;SDS011;12772;49.794;10.024;2023-11-21T09:15:04;11.65;;;9.40;;
24635;SDS011;12772;49.794;10.024;2023-11-21T09:19:08;11.52;;;9.57;;
24635;SDS011;12772;49.794;10.024;2023-11-21T09:23:09;12.32;;;9.15;;
24635;SDS011;12772;49.794;10.024;2023-11-21T09:27:13;10.48;;;8.52;;
24635;SDS011;12772;49.794;10.024;2023-11-21T09:31:15;10.18;;;7.88;;
24635;SDS011;12772;49.794;10.024;2023-11-21T09:35:17;8.45;;;7.50;;
24635;SDS011;12772;49.794;10.024;2023-11-21T09:39:19;8.18;;;7.40;;
24635;SDS011;12772;49.794;10.024;2023-11-21T09:43:21;8.23;;;6.88;;
24635;SDS011;12772;49.794;10.024;2023-11-21T09:47:23;10.88;;;6.60;;
24635;SDS011;12772;49.794;10.024;2023-11-21T09:51:26;7.82;;;7.07;;
24635;SDS011;12772;49.794;10.024;2023-11-21T09:55:30;11.98;;;7.75;;
24635;SDS011;12772;49.794;10.024;2023-11-21T09:59:36;7.75;;;6.75;;
24635;SDS011;12772;49.794;10.024;2023-11-21T10:03:39;9.88;;;7.45;;
24635;SDS011;12772;49.794;10.024;2023-11-21T10:07:43;7.00;;;6.03;;
24635;SDS011;12772;49.794;10.024;2023-11-21T10:11:47;6.45;;;5.80;;
24635;SDS011;12772;49.794;10.024;2023-11-21T10:15:51;6.32;;;5.57;;
24635;SDS011;12772;49.794;10.024;2023-11-21T10:19:53;5.28;;;4.78;;
24635;SDS011;12772;49.794;10.024;2023-11-21T10:23:56;6.60;;;5.35;;
24635;SDS011;12772;49.794;10.024;2023-11-21T10:27:59;6.68;;;5.88;;
24635;SDS011;12772;49.794;10.024;2023-11-21T10:32:05;7.78;;;5.40;;
24635;SDS011;12772;49.794;10.024;2023-11-21T10:36:07;6.35;;;5.72;;
24635;SDS011;12772;49.794;10.024;2023-11-21T10:40:11;9.80;;;6.80;;
24635;SDS011;12772;49.794;10.024;2023-11-21T10:44:16;6.47;;;4.95;;
24635;SDS011;12772;49.794;10.024;2023-11-21T10:48:21;5.35;;;4.78;;
24635;SDS011;12772;49.794;10.024;2023-11-21T10:52:26;4.45;;;4.05;;
24635;SDS011;12772;49.794;10.024;2023-11-21T10:56:28;5.28;;;4.38;;
24635;SDS011;12772;49.794;10.024;2023-11-21T11:00:31;7.28;;;4.40;;
24635;SDS011;12772;49.794;10.024;2023-11-21T11:04:34;5.63;;;5.13;;
24635;SDS011;12772;49.794;10.024;2023-11-21T11:08:38;5.93;;;4.80;;
24635;SDS011;12772;49.794;10.024;2023-11-21T11:12:41;5.35;;;4.75;;
24635;SDS011;12772;49.794;10.024;2023-11-21T11:16:43;4.57;;;3.72;;
24635;SDS011;12772;49.794;10.024;2023-11-21T11:20:45;5.07;;;3.80;;
24635;SDS011;12772;49.794;10.024;2023-11-21T11:24:56;6.35;;;4.22;;
24635;SDS011;12772;49.794;10.024;2023-11-21T11:29:12;4.63;;;3.80;;
24635;SDS011;12772;49.794;10.024;2023-11-21T11:37:42;10.60;;;4.38;;
24635;SDS011;12772;49.794;10.024;2023-11-21T11:41:45;9.07;;;4.30;;
24635;SDS011;12772;49.794;10.024;2023-11-21T11:45:48;6.10;;;4.18;;
24635;SDS011;12772;49.794;10.024;2023-11-21T11:49:56;6.75;;;4.00;;
24635;SDS011;12772;49.794;10.024;2023-11-21T11:54:05;4.35;;;3.95;;
24635;SDS011;12772;49.794;10.024;2023-11-21T11:58:08;4.50;;;4.10;;
24635;SDS011;12772;49.794;10.024;2023-11-21T12:02:10;6.75;;;3.95;;
24635;SDS011;12772;49.794;10.024;2023-11-21T12:06:13;4.35;;;3.40;;
24635;SDS011;12772;49.794;10.024;2023-11-21T12:10:15;5.25;;;3.38;;
24635;SDS011;12772;49.794;10.024;2023-11-21T12:14:19;4.68;;;3.50;;
24635;SDS011;12772;49.794;10.024;2023-11-21T12:18:21;3.90;;;3.60;;
24635;SDS011;12772;49.794;10.024;2023-11-21T12:22:24;4.10;;;3.60;;
24635;SDS011;12772;49.794;10.024;2023-11-21T12:26:27;3.88;;;3.33;;
24635;SDS011;12772;49.794;10.024;2023-11-21T12:30:29;5.07;;;4.60;;
24635;SDS011;12772;49.794;10.024;2023-11-21T12:34:32;4.57;;;4.18;;
24635;SDS011;12772;49.794;10.024;2023-11-21T12:38:34;4.53;;;4.13;;
24635;SDS011;12772;49.794;10.024;2023-11-21T12:42:36;7.40;;;3.80;;
24635;SDS011;12772;49.794;10.024;2023-11-21T12:46:41;5.22;;;3.75;;
24635;SDS011;12772;49.794;10.024;2023-11-21T12:50:45;2.67;;;2.47;;
24635;SDS011;12772;49.794;10.024;2023-11-21T12:54:49;2.70;;;2.50;;
24635;SDS011;12772;49.794;10.024;2023-11-21T12:58:53;3.05;;;2.78;;
24635;SDS011;12772;49.794;10.024;2023-11-21T13:02:58;3.25;;;2.92;;
24635;SDS011;12772;49.794;10.024;2023-11-21T13:07:03;3.65;;;2.80;;
24635;SDS011;12772;49.794;10.024;2023-11-21T13:11:11;4.90;;;2.40;;
24635;SDS011;12772;49.794;10.024;2023-11-21T13:15:14;3.15;;;2.38;;
24635;SDS011;12772;49.794;10.024;2023-11-21T13:19:18;3.05;;;2.75;;
24635;SDS011;12772;49.794;10.024;2023-11-21T13:23:22;3.75;;;2.75;;
24635;SDS011;12772;49.794;10.024;2023-11-21T13:27:24;3.42;;;2.75;;
24635;SDS011;12772;49.794;10.024;2023-11-21T13:31:27;2.70;;;2.50;;
24635;SDS011;12772;49.794;10.024;2023-11-21T13:35:33;2.70;;;2.50;;
24635;SDS011;12772;49.794;10.024;2023-11-21T13:39:38;4.05;;;2.42;;
24635;SDS011;12772;49.794;10.024;2023-11-21T13:43:44;2.80;;;2.40;;
24635;SDS011;12772;49.794;10.024;2023-11-21T13:47:53;2.28;;;2.08;;
24635;SDS011;12772;49.794;10.024;2023-11-21T13:51:58;3.03;;;2.38;;
24635;SDS011;12772;49.794;10.024;2023-11-21T13:56:01;3.90;;;2.75;;
24635;SDS011;12772;49.794;10.024;2023-11-21T14:00:03;3.35;;;2.30;;
24635;SDS011;12772;49.794;10.024;2023-11-21T14:04:11;3.10;;;2.15;;
24635;SDS011;12772;49.794;10.024;2023-11-21T14:08:22;3.00;;;2.13;;
24635;SDS011;12772;49.794;10.024;2023-11-21T14:12:29;3.67;;;2.45;;
24635;SDS011;12772;49.794;10.024;2023-11-21T14:16:34;8.82;;;4.57;;
24635;SDS011;12772;49.794;10.024;2023-11-21T14:20:36;2.60;;;2.40;;
24635;SDS011;12772;49.794;10.024;2023-11-21T14:24:40;4.30;;;2.00;;
24635;SDS011;12772;49.794;10.024;2023-11-21T14:28:44;1.90;;;1.40;;
24635;SDS011;12772;49.794;10.024;2023-11-21T14:32:48;1.88;;;1.52;;
24635;SDS011;12772;49.794;10.024;2023-11-21T14:36:51;1.98;;;1.77;;
24635;SDS011;12772;49.794;10.024;2023-11-21T14:40:53;3.78;;;1.90;;
24635;SDS011;12772;49.794;10.024;2023-11-21T14:44:55;1.60;;;1.50;;
24635;SDS011;12772;49.794;10.024;2023-11-21T14:49:00;2.97;;;1.63;;
24635;SDS011;12772;49.794;10.024;2023-11-21T14:53:19;2.47;;;1.65;;
24635;SDS011;12772;49.794;10.024;2023-11-21T14:57:42;2.78;;;2.42;;
24635;SDS011;12772;49.794;10.024;2023-11-21T15:01:49;8.35;;;5.97;;
24635;SDS011;12772;49.794;10.024;2023-11-21T15:05:55;15.52;;;9.73;;
24635;SDS011;12772;49.794;10.024;2023-11-21T15:09:58;9.13;;;5.20;;
24635;SDS011;12772;49.794;10.024;2023-11-21T15:14:00;10.35;;;6.22;;
24635;SDS011;12772;49.794;10.024;2023-11-21T15:18:07;5.03;;;4.05;;
24635;SDS011;12772;49.794;10.024;2023-11-21T15:22:12;5.00;;;3.67;;
24635;SDS011;12772;49.794;10.024;2023-11-21T15:26:16;5.88;;;4.18;;
24635;SDS011;12772;49.794;10.024;2023-11-21T15:30:18;4.90;;;3.70;;
24635;SDS011;12772;49.794;10.024;2023-11-21T15:34:25;6.10;;;3.10;;
24635;SDS011;12772;49.794;10.024;2023-11-21T15:38:29;3.80;;;3.25;;
24635;SDS011;12772;49.794;10.024;2023-11-21T15:42:31;6.30;;;3.30;;
24635;SDS011;12772;49.794;10.024;2023-11-21T15:46:34;4.25;;;3.53;;
24635;SDS011;12772;49.794;10.024;2023-11-21T15:50:37;4.82;;;3.70;;
24635;SDS011;12772;49.794;10.024;2023-11-21T15:54:39;5.75;;;2.92;;
24635;SDS011;12772;49.794;10.024;2023-11-21T15:58:41;3.13;;;2.85;;
24635;SDS011;12772;49.794;10.024;2023-11-21T16:02:44;6.07;;;3.75;;
24635;SDS011;12772;49.794;10.024;2023-11-21T16:06:46;3.35;;;3.05;;
24635;SDS011;12772;49.794;10.024;2023-11-21T16:10:48;5.95;;;3.13;;
24635;SDS011;12772;49.794;10.024;2023-11-21T16:14:50;9.55;;;4.72;;
24635;SDS011;12772;49.794;10.024;2023-11-21T16:18:52;6.70;;;5.15;;
24635;SDS011;12772;49.794;10.024;2023-11-21T16:22:54;6.97;;;4.47;;
24635;SDS011;12772;49.794;10.024;2023-11-21T16:26:56;4.95;;;3.70;;
24635;SDS011;12772;49.794;10.024;2023-11-21T16:30:58;5.93;;;3.38;;
24635;SDS011;12772;49.794;10.024;2023-11-21T16:35:01;5.68;;;4.00;;
24635;SDS011;12772;49.794;10.024;2023-11-21T16:39:03;6.68;;;3.78;;
24635;SDS011;12772;49.794;10.024;2023-11-21T16:43:06;6.00;;;3.60;;
24635;SDS011;12772;49.794;10.024;2023-11-21T16:47:09;7.32;;;4.70;;
24635;SDS011;12772;49.794;10.024;2023-11-21T16:51:11;6.07;;;4.47;;
24635;SDS011;12772;49.794;10.024;2023-11-21T16:55:13;6.40;;;4.15;;
24635;SDS011;12772;49.794;10.024;2023-11-21T16:59:16;6.18;;;4.28;;
24635;SDS011;12772;49.794;10.024;2023-11-21T17:03:18;7.20;;;4.65;;
24635;SDS011;12772;49.794;10.024;2023-11-21T17:07:21;5.25;;;4.20;;
24635;SDS011;12772;49.794;10.024;2023-11-21T17:11:23;7.82;;;4.95;;
24635;SDS011;12772;49.794;10.024;2023-11-21T17:15:25;4.85;;;4.20;;
24635;SDS011;12772;49.794;10.024;2023-11-21T17:19:27;5.78;;;3.95;;
24635;SDS011;12772;49.794;10.024;2023-11-21T17:23:33;5.38;;;3.90;;
24635;SDS011;12772;49.794;10.024;2023-11-21T17:27:35;4.05;;;3.50;;
24635;SDS011;12772;49.794;10.024;2023-11-21T17:31:37;8.25;;;3.97;;
24635;SDS011;12772;49.794;10.024;2023-11-21T17:35:39;4.82;;;4.13;;
24635;SDS011;12772;49.794;10.024;2023-11-21T17:39:47;7.18;;;5.72;;
24635;SDS011;12772;49.794;10.024;2023-11-21T17:43:49;9.68;;;7.30;;
24635;SDS011;12772;49.794;10.024;2023-11-21T17:47:51;11.80;;;9.77;;
24635;SDS011;12772;49.794;10.024;2023-11-21T17:51:53;10.95;;;9.82;;
24635;SDS011;12772;49.794;10.024;2023-11-21T17:55:55;16.13;;;11.32;;
24635;SDS011;12772;49.794;10.024;2023-11-21T17:59:57;14.23;;;10.18;;
24635;SDS011;12772;49.794;10.024;2023-11-21T18:03:59;8.63;;;7.40;;
24635;SDS011;12772;49.794;10.024;2023-11-21T18:08:01;10.32;;;7.15;;
24635;SDS011;12772;49.794;10.024;2023-11-21T18:12:04;6.75;;;5.93;;
24635;SDS011;12772;49.794;10.024;2023-11-21T18:16:07;5.88;;;5.25;;
24635;SDS011;12772;49.794;10.024;2023-11-21T18:20:09;4.93;;;4.38;;
24635;SDS011;12772;49.794;10.024;2023-11-21T18:24:12;5.78;;;4.90;;
24635;SDS011;12772;49.794;10.024;2023-11-21T18:28:14;5.97;;;4.35;;
24635;SDS011;12772;49.794;10.024;2023-11-21T18:32:16;5.53;;;5.03;;
24635;SDS011;12772;49.794;10.024;2023-11-21T18:36:19;4.55;;;4.15;;
24635;SDS011;12772;49.794;10.024;2023-11-21T18:40:21;5.13;;;4.60;;
24635;SDS011;12772;49.794;10.024;2023-11-21T18:44:23;4.97;;;4.30;;
24635;SDS011;12772;49.794;10.024;2023-11-21T18:48:25;4.75;;;4.32;;
24635;SDS011;12772;49.794;10.024;2023-11-21T18:52:27;5.57;;;3.92;;
24635;SDS011;12772;49.794;10.024;2023-11-21T18:56:29;7.22;;;4.20;;
24635;SDS011;12772;49.794;10.024;2023-11-21T19:00:31;5.93;;;4.70;;
24635;SDS011;12772;49.794;10.024;2023-11-21T19:04:33;5.93;;;5.22;;
24635;SDS011;12772;49.794;10.024;2023-11-21T19:08:35;5.85;;;5.35;;
24635;SDS011;12772;49.794;10.024;2023-11-21T19:12:37;7.18;;;5.55;;
24635;SDS011;12772;49.794;10.024;2023-11-21T19:16:39;17.83;;;13.30;;
24635;SDS011;12772;49.794;10.024;2023-11-21T19:20:41;17.27;;;13.57;;
24635;SDS011;12772;49.794;10.024;2023-11-21T19:24:43;6.47;;;4.90;;
24635;SDS011;12772;49.794;10.024;2023-11-21T19:28:45;3.10;;;2.83;;
24635;SDS011;12772;49.794;10.024;2023-11-21T19:32:47;2.10;;;2.00;;
24635;SDS011;12772;49.794;10.024;2023-11-21T19:36:49;1.88;;;1.77;;
24635;SDS011;12772;49.794;10.024;2023-11-21T19:40:52;1.60;;;1.50;;
24635;SDS011;12772;49.794;10.024;2023-11-21T19:44:54;1.73;;;1.60;;
24635;SDS011;12772;49.794;10.024;2023-11-21T19:48:56;1.95;;;1.85;;
24635;SDS011;12772;49.794;10.024;2023-11-21T19:52:58;1.83;;;1.73;;
24635;SDS011;12772;49.794;10.024;2023-11-21T19:57:00;1.83;;;1.73;;
24635;SDS011;12772;49.794;10.024;2023-11-21T20:01:05;2.10;;;2.00;;
24635;SDS011;12772;49.794;10.024;2023-11-21T20:05:07;2.45;;;2.25;;
24635;SDS011;12772;49.794;10.024;2023-11-21T20:09:10;2.40;;;2.20;;
24635;SDS011;12772;49.794;10.024;2023-11-21T20:13:12;2.65;;;2.30;;
24635;SDS011;12772;49.794;10.024;2023-11-21T20:17:14;2.72;;;2.53;;
24635;SDS011;12772;49.794;10.024;2023-11-21T20:21:20;2.50;;;2.30;;
24635;SDS011;12772;49.794;10.024;2023-11-21T20:25:23;2.50;;;2.30;;
24635;SDS011;12772;49.794;10.024;2023-11-21T20:29:28;3.17;;;2.97;;
24635;SDS011;12772;49.794;10.024;2023-11-21T20:33:34;2.63;;;2.42;;
24635;SDS011;12772;49.794;10.024;2023-11-21T20:37:36;2.58;;;2.38;;
24635;SDS011;12772;49.794;10.024;2023-11-21T20:41:39;2.78;;;2.58;;
24635;SDS011;12772;49.794;10.024;2023-11-21T20:45:41;3.03;;;2.83;;
24635;SDS011;12772;49.794;10.024;2023-11-21T20:49:43;2.90;;;2.65;;
24635;SDS011;12772;49.794;10.024;2023-11-21T20:53:45;2.97;;;2.78;;
24635;SDS011;12772;49.794;10.024;2023-11-21T20:57:47;2.85;;;2.65;;
24635;SDS011;12772;49.794;10.024;2023-11-21T21:01:50;5.30;;;3.20;;
24635;SDS011;12772;49.794;10.024;2023-11-21T21:05:51;2.58;;;2.30;;
24635;SDS011;12772;49.794;10.024;2023-11-21T21:09:53;2.92;;;2.72;;
24635;SDS011;12772;49.794;10.024;2023-11-21T21:13:55;2.95;;;2.75;;
24635;SDS011;12772;49.794;10.024;2023-11-21T21:17:57;3.58;;;2.38;;
24635;SDS011;12772;49.794;10.024;2023-11-21T21:22:01;3.67;;;3.10;;
24635;SDS011;12772;49.794;10.024;2023-11-21T21:26:03;8.63;;;5.93;;
24635;SDS011;12772;49.794;10.024;2023-11-21T21:30:08;4.75;;;4.28;;
24635;SDS011;12772;49.794;10.024;2023-11-21T21:34:10;3.25;;;3.05;;
24635;SDS011;12772;49.794;10.024;2023-11-21T21:38:15;2.78;;;2.58;;
24635;SDS011;12772;49.794;10.024;2023-11-21T21:42:17;2.85;;;2.65;;
24635;SDS011;12772;49.794;10.024;2023-11-21T21:46:18;2.67;;;2.47;;
24635;SDS011;12772;49.794;10.024;2023-11-21T21:50:21;2.80;;;2.60;;
24635;SDS011;12772;49.794;10.024;2023-11-21T21:54:25;2.13;;;2.03;;
24635;SDS011;12772;49.794;10.024;2023-11-21T21:58:28;2.35;;;2.25;;
24635;SDS011;12772;49.794;10.024;2023-11-21T22:02:30;2.25;;;2.05;;
24635;SDS011;12772;49.794;10.024;2023-11-21T22:06:32;4.03;;;2.20;;
24635;SDS011;12772;49.794;10.024;2023-11-21T22:10:34;2.08;;;1.98;;
24635;SDS011;12772;49.794;10.024;2023-11-21T22:14:36;2.45;;;2.25;;
24635;SDS011;12772;49.794;10.024;2023-11-21T22:18:38;2.38;;;2.28;;
24635;SDS011;12772;49.794;10.024;2023-11-21T22:22:40;2.70;;;2.50;;
24635;SDS011;12772;49.794;10.024;2023-11-21T22:26:43;2.97;;;2.53;;
24635;SDS011;12772;49.794;10.024;2023-11-21T22:30:45;3.05;;;2.75;;
24635;SDS011;12772;49.794;10.024;2023-11-21T22:34:47;2.63;;;2.42;;
24635;SDS011;12772;49.794;10.024;2023-11-21T22:38:49;3.50;;;3.20;;
24635;SDS011;12772;49.794;10.024;2023-11-21T22:42:51;2.92;;;2.72;;
24635;SDS011;12772;49.794;10.024;2023-11-21T22:46:53;3.85;;;3.20;;
24635;SDS011;12772;49.794;10.024;2023-11-21T22:51:00;3.58;;;3.28;;
24635;SDS011;12772;49.794;10.024;2023-11-21T22:55:02;3.47;;;3.17;;
24635;SDS011;12772;49.794;10.024;2023-11-21T22:59:05;3.75;;;3.45;;
24635;SDS011;12772;49.794;10.024;2023-11-21T23:03:07;3.42;;;3.15;;
24635;SDS011;12772;49.794;10.024;2023-11-21T23:07:09;3.63;;;3.38;;
24635;SDS011;12772;49.794;10.024;2023-11-21T23:11:12;3.88;;;2.97;;
24635;SDS011;12772;49.794;10.024;2023-11-21T23:15:14;4.00;;;3.60;;
24635;SDS011;12772;49.794;10.024;2023-11-21T23:19:17;4.07;;;3.72;;
24635;SDS011;12772;49.794;10.024;2023-11-21T23:23:19;3.55;;;3.28;;
24635;SDS011;12772;49.794;10.024;2023-11-21T23:27:23;3.13;;;2.83;;
24635;SDS011;12772;49.794;10.024;2023-11-21T23:31:25;3.88;;;3.58;;
24635;SDS011;12772;49.794;10.024;2023-11-21T23:35:27;3.30;;;3.00;;
24635;SDS011;12772;49.794;10.024;2023-11-21T23:39:31;3.70;;;3.40;;
24635;SDS011;12772;49.794;10.024;2023-11-21T23:43:33;6.15;;;3.75;;
24635;SDS011;12772;49.794;10.024;2023-11-21T23:47:35;3.40;;;3.13;;
24635;SDS011;12772;49.794;10.024;2023-11-21T23:51:37;3.90;;;3.60;;
24635;SDS011;12772;49.794;10.024;2023-11-21T23:55:39;4.80;;;3.33;;
24635;SDS011;12772;49.794;10.024;2023-11-21T23:59:41;3.35;;;3.05;;
